Terminal Aerodrome Forecast
Issued by NWS

Home | Current Version | Previous Version | Text Only | Print | Product List | Glossary On
Versions: 1 2 3 4 5 6 7 8 9 10 11 12 13 14 15 16 17 18
000
FTUS43 KGRR 262300
TAFAZO
TAF
KAZO 262339Z 2700/2724 10003KT P6SM OVC080
     FM270900 05005KT P6SM OVC080
     FM271800 36006KT P6SM SKC=

USA.gov is the U.S. government's official web portal to all federal, state and local government web resources and services.